sensor_id;sensor_type;location;lat;lon;timestamp;pressure;altitude;pressure_sealevel;temperature;humidity
59729;BME280;45588;51.598;5.618;2022-08-03T00:01:27;101403.88;;;17.42;100.00
59729;BME280;45588;51.598;5.618;2022-08-03T00:03:53;101407.41;;;17.47;100.00
59729;BME280;45588;51.598;5.618;2022-08-03T00:06:18;101397.75;;;17.48;100.00
59729;BME280;45588;51.598;5.618;2022-08-03T00:08:43;101404.78;;;17.53;100.00
59729;BME280;45588;51.598;5.618;2022-08-03T00:11:09;101403.03;;;17.57;100.00
59729;BME280;45588;51.598;5.618;2022-08-03T00:13:34;101400.41;;;17.63;100.00
59729;BME280;45588;51.598;5.618;2022-08-03T00:15:59;101400.44;;;17.65;100.00
59729;BME280;45588;51.598;5.618;2022-08-03T00:18:25;101406.63;;;17.74;100.00
59729;BME280;45588;51.598;5.618;2022-08-03T00:20:50;101402.19;;;17.60;100.00
59729;BME280;45588;51.598;5.618;2022-08-03T00:23:16;101407.47;;;17.72;100.00
59729;BME280;45588;51.598;5.618;2022-08-03T00:25:41;101406.63;;;17.79;100.00
59729;BME280;45588;51.598;5.618;2022-08-03T00:28:07;101404.84;;;17.73;100.00
59729;BME280;45588;51.598;5.618;2022-08-03T00:30:32;101399.63;;;17.80;100.00
59729;BME280;45588;51.598;5.618;2022-08-03T00:32:59;101403.09;;;17.77;100.00
59729;BME280;45588;51.598;5.618;2022-08-03T00:35:24;101396.94;;;17.75;100.00
59729;BME280;45588;51.598;5.618;2022-08-03T00:37:50;101402.19;;;17.66;100.00
59729;BME280;45588;51.598;5.618;2022-08-03T00:40:16;101396.84;;;17.46;100.00
59729;BME280;45588;51.598;5.618;2022-08-03T00:42:58;101399.47;;;17.43;100.00
59729;BME280;45588;51.598;5.618;2022-08-03T00:45:29;101398.59;;;17.39;100.00
59729;BME280;45588;51.598;5.618;2022-08-03T00:47:56;101394.13;;;17.26;100.00
59729;BME280;45588;51.598;5.618;2022-08-03T00:50:23;101393.28;;;17.30;100.00
59729;BME280;45588;51.598;5.618;2022-08-03T00:52:50;101387.09;;;17.23;100.00
59729;BME280;45588;51.598;5.618;2022-08-03T00:55:16;101392.38;;;17.25;100.00
59729;BME280;45588;51.598;5.618;2022-08-03T00:57:42;101395.03;;;17.25;100.00
59729;BME280;45588;51.598;5.618;2022-08-03T01:00:09;101395.06;;;17.36;100.00
59729;BME280;45588;51.598;5.618;2022-08-03T01:02:36;101392.41;;;17.29;100.00
59729;BME280;45588;51.598;5.618;2022-08-03T01:05:02;101386.25;;;17.26;100.00
59729;BME280;45588;51.598;5.618;2022-08-03T01:07:40;101383.59;;;17.20;100.00
59729;BME280;45588;51.598;5.618;2022-08-03T01:20:43;101378.06;;;16.75;100.00
59729;BME280;45588;51.598;5.618;2022-08-03T01:23:19;101379.81;;;16.73;100.00
59729;BME280;45588;51.598;5.618;2022-08-03T01:28:57;101376.31;;;16.76;100.00
59729;BME280;45588;51.598;5.618;2022-08-03T01:31:31;101373.75;;;16.82;100.00
59729;BME280;45588;51.598;5.618;2022-08-03T01:34:04;101376.31;;;16.74;100.00
59729;BME280;45588;51.598;5.618;2022-08-03T01:36:35;101372.88;;;16.83;100.00
59729;BME280;45588;51.598;5.618;2022-08-03T01:39:04;101380.75;;;16.80;100.00
59729;BME280;45588;51.598;5.618;2022-08-03T01:41:57;101379.00;;;16.79;100.00
59729;BME280;45588;51.598;5.618;2022-08-03T01:44:26;101373.69;;;16.77;100.00
59729;BME280;45588;51.598;5.618;2022-08-03T01:46:57;101383.25;;;16.67;100.00
59729;BME280;45588;51.598;5.618;2022-08-03T01:49:23;101376.25;;;16.68;100.00
59729;BME280;45588;51.598;5.618;2022-08-03T01:51:50;101377.91;;;16.55;100.00
59729;BME280;45588;51.598;5.618;2022-08-03T01:54:17;101364.72;;;16.48;100.00
59729;BME280;45588;51.598;5.618;2022-08-03T01:56:43;101373.47;;;16.40;100.00
59729;BME280;45588;51.598;5.618;2022-08-03T01:59:11;101373.41;;;16.37;100.00
59729;BME280;45588;51.598;5.618;2022-08-03T02:01:39;101374.28;;;16.36;100.00
59729;BME280;45588;51.598;5.618;2022-08-03T02:04:06;101369.91;;;16.34;100.00
59729;BME280;45588;51.598;5.618;2022-08-03T02:06:33;101368.16;;;16.36;100.00
59729;BME280;45588;51.598;5.618;2022-08-03T02:09:00;101368.16;;;16.36;100.00
59729;BME280;45588;51.598;5.618;2022-08-03T02:11:26;101369.88;;;16.35;100.00
59729;BME280;45588;51.598;5.618;2022-08-03T02:13:52;101372.50;;;16.32;100.00
59729;BME280;45588;51.598;5.618;2022-08-03T02:16:20;101370.78;;;16.36;100.00
59729;BME280;45588;51.598;5.618;2022-08-03T02:18:47;101363.78;;;16.36;100.00
59729;BME280;45588;51.598;5.618;2022-08-03T02:21:13;101362.00;;;16.35;100.00
59729;BME280;45588;51.598;5.618;2022-08-03T02:23:39;101362.84;;;16.28;100.00
59729;BME280;45588;51.598;5.618;2022-08-03T02:26:09;101365.50;;;16.31;100.00
59729;BME280;45588;51.598;5.618;2022-08-03T02:28:40;101364.63;;;16.32;100.00
59729;BME280;45588;51.598;5.618;2022-08-03T02:31:12;101362.00;;;16.34;100.00
59729;BME280;45588;51.598;5.618;2022-08-03T02:33:56;101359.28;;;16.25;100.00
59729;BME280;45588;51.598;5.618;2022-08-03T02:36:26;101363.72;;;16.30;100.00
59729;BME280;45588;51.598;5.618;2022-08-03T02:38:54;101350.56;;;16.29;100.00
59729;BME280;45588;51.598;5.618;2022-08-03T02:41:29;101353.25;;;16.35;100.00
59729;BME280;45588;51.598;5.618;2022-08-03T02:43:58;101354.06;;;16.28;100.00
59729;BME280;45588;51.598;5.618;2022-08-03T02:46:30;101346.13;;;16.20;100.00
59729;BME280;45588;51.598;5.618;2022-08-03T02:48:56;101348.84;;;16.32;100.00
59729;BME280;45588;51.598;5.618;2022-08-03T02:51:23;101348.78;;;16.25;100.00
59729;BME280;45588;51.598;5.618;2022-08-03T02:53:53;101354.03;;;16.21;100.00
59729;BME280;45588;51.598;5.618;2022-08-03T02:56:20;101348.78;;;16.23;100.00
59729;BME280;45588;51.598;5.618;2022-08-03T02:58:47;101341.78;;;16.27;100.00
59729;BME280;45588;51.598;5.618;2022-08-03T03:01:14;101342.69;;;16.29;100.00
59729;BME280;45588;51.598;5.618;2022-08-03T03:03:40;101344.44;;;16.30;100.00
59729;BME280;45588;51.598;5.618;2022-08-03T03:06:06;101347.06;;;16.27;100.00
59729;BME280;45588;51.598;5.618;2022-08-03T03:08:33;101341.81;;;16.33;100.00
59729;BME280;45588;51.598;5.618;2022-08-03T03:10:59;101336.59;;;16.37;100.00
59729;BME280;45588;51.598;5.618;2022-08-03T03:13:30;101345.44;;;16.47;100.00
59729;BME280;45588;51.598;5.618;2022-08-03T03:15:59;101341.97;;;16.51;100.00
59729;BME280;45588;51.598;5.618;2022-08-03T03:18:28;101342.03;;;16.59;100.00
59729;BME280;45588;51.598;5.618;2022-08-03T03:20:55;101349.03;;;16.63;100.00
59729;BME280;45588;51.598;5.618;2022-08-03T03:23:22;101354.38;;;16.71;100.00
59729;BME280;45588;51.598;5.618;2022-08-03T03:25:49;101344.72;;;16.71;100.00
59729;BME280;45588;51.598;5.618;2022-08-03T03:28:15;101342.13;;;16.77;100.00
59729;BME280;45588;51.598;5.618;2022-08-03T03:30:41;101338.59;;;16.74;100.00
59729;BME280;45588;51.598;5.618;2022-08-03T03:33:07;101343.91;;;16.80;100.00
59729;BME280;45588;51.598;5.618;2022-08-03T03:35:33;101342.19;;;16.85;100.00
59729;BME280;45588;51.598;5.618;2022-08-03T03:37:58;101347.44;;;16.80;100.00
59729;BME280;45588;51.598;5.618;2022-08-03T03:40:24;101350.06;;;16.82;100.00
59729;BME280;45588;51.598;5.618;2022-08-03T03:42:49;101347.44;;;16.82;100.00
59729;BME280;45588;51.598;5.618;2022-08-03T03:45:15;101343.94;;;16.84;100.00
59729;BME280;45588;51.598;5.618;2022-08-03T03:47:41;101351.84;;;16.81;100.00
59729;BME280;45588;51.598;5.618;2022-08-03T03:50:06;101350.97;;;16.85;100.00
59729;BME280;45588;51.598;5.618;2022-08-03T03:52:32;101345.72;;;16.87;100.00
59729;BME280;45588;51.598;5.618;2022-08-03T03:54:58;101343.06;;;16.82;100.00
59729;BME280;45588;51.598;5.618;2022-08-03T03:57:24;101344.81;;;16.85;100.00
59729;BME280;45588;51.598;5.618;2022-08-03T03:59:50;101345.69;;;16.81;100.00
59729;BME280;45588;51.598;5.618;2022-08-03T04:02:15;101339.53;;;16.80;100.00
59729;BME280;45588;51.598;5.618;2022-08-03T04:04:41;101341.25;;;16.77;100.00
59729;BME280;45588;51.598;5.618;2022-08-03T04:07:25;101335.19;;;16.81;100.00
59729;BME280;45588;51.598;5.618;2022-08-03T04:10:16;101340.44;;;16.84;100.00
59729;BME280;45588;51.598;5.618;2022-08-03T04:13:06;101336.97;;;16.91;100.00
59729;BME280;45588;51.598;5.618;2022-08-03T04:15:35;101335.25;;;16.99;100.00
59729;BME280;45588;51.598;5.618;2022-08-03T04:18:02;101343.22;;;17.15;100.00
59729;BME280;45588;51.598;5.618;2022-08-03T04:20:29;101344.19;;;17.41;100.00
59729;BME280;45588;51.598;5.618;2022-08-03T04:22:57;101338.94;;;17.58;100.00
59729;BME280;45588;51.598;5.618;2022-08-03T04:25:29;101345.19;;;17.91;100.00
59729;BME280;45588;51.598;5.618;2022-08-03T04:27:56;101341.66;;;18.24;100.00
59729;BME280;45588;51.598;5.618;2022-08-03T04:30:26;101345.13;;;18.66;100.00
59729;BME280;45588;51.598;5.618;2022-08-03T04:32:54;101347.66;;;19.14;100.00
59729;BME280;45588;51.598;5.618;2022-08-03T04:35:22;101350.03;;;19.60;100.00
59729;BME280;45588;51.598;5.618;2022-08-03T04:37:50;101344.47;;;20.03;100.00
59729;BME280;45588;51.598;5.618;2022-08-03T04:40:34;101341.41;;;20.52;100.00
59729;BME280;45588;51.598;5.618;2022-08-03T04:43:01;101347.22;;;20.89;100.00
59729;BME280;45588;51.598;5.618;2022-08-03T04:45:27;101343.50;;;21.03;100.00
59729;BME280;45588;51.598;5.618;2022-08-03T04:47:53;101348.28;;;21.44;100.00
59729;BME280;45588;51.598;5.618;2022-08-03T04:50:20;101346.97;;;21.74;100.00
59729;BME280;45588;51.598;5.618;2022-08-03T04:52:46;101347.31;;;22.10;100.00
59729;BME280;45588;51.598;5.618;2022-08-03T04:55:11;101348.47;;;22.46;100.00
59729;BME280;45588;51.598;5.618;2022-08-03T04:57:36;101346.50;;;22.56;100.00
59729;BME280;45588;51.598;5.618;2022-08-03T05:00:03;101351.16;;;22.43;100.00
59729;BME280;45588;51.598;5.618;2022-08-03T05:02:30;101358.53;;;22.28;100.00
59729;BME280;45588;51.598;5.618;2022-08-03T05:04:56;101354.84;;;21.80;100.00
59729;BME280;45588;51.598;5.618;2022-08-03T05:07:21;101354.63;;;21.31;100.00
59729;BME280;45588;51.598;5.618;2022-08-03T05:09:46;101353.28;;;20.96;100.00
59729;BME280;45588;51.598;5.618;2022-08-03T05:12:12;101356.19;;;20.73;100.00
59729;BME280;45588;51.598;5.618;2022-08-03T05:14:37;101363.44;;;20.57;100.00
59729;BME280;45588;51.598;5.618;2022-08-03T05:17:07;101368.91;;;20.34;100.00
59729;BME280;45588;51.598;5.618;2022-08-03T05:19:33;101372.44;;;20.35;100.00
59729;BME280;45588;51.598;5.618;2022-08-03T05:21:59;101368.97;;;20.25;100.00
59729;BME280;45588;51.598;5.618;2022-08-03T05:24:24;101378.78;;;20.10;100.00
59729;BME280;45588;51.598;5.618;2022-08-03T05:26:49;101374.38;;;20.13;100.00
59729;BME280;45588;51.598;5.618;2022-08-03T05:29:15;101372.56;;;20.18;100.00
59729;BME280;45588;51.598;5.618;2022-08-03T05:31:40;101376.97;;;20.19;100.00
59729;BME280;45588;51.598;5.618;2022-08-03T05:34:06;101371.66;;;20.20;100.00
59729;BME280;45588;51.598;5.618;2022-08-03T05:36:31;101367.34;;;20.12;100.00
59729;BME280;45588;51.598;5.618;2022-08-03T05:38:56;101378.78;;;20.10;100.00
59729;BME280;45588;51.598;5.618;2022-08-03T05:41:22;101381.44;;;20.14;100.00
59729;BME280;45588;51.598;5.618;2022-08-03T05:43:47;101385.75;;;20.24;100.00
59729;BME280;45588;51.598;5.618;2022-08-03T05:46:13;101375.97;;;20.30;100.00
59729;BME280;45588;51.598;5.618;2022-08-03T05:48:38;101389.22;;;20.30;100.00
59729;BME280;45588;51.598;5.618;2022-08-03T05:51:04;101385.59;;;20.44;100.00
59729;BME280;45588;51.598;5.618;2022-08-03T05:53:34;101385.59;;;20.42;100.00
59729;BME280;45588;51.598;5.618;2022-08-03T05:55:59;101385.50;;;20.55;100.00
59729;BME280;45588;51.598;5.618;2022-08-03T05:58:25;101387.06;;;20.77;100.00
59729;BME280;45588;51.598;5.618;2022-08-03T06:00:50;101387.72;;;20.96;100.00
59729;BME280;45588;51.598;5.618;2022-08-03T06:03:15;101382.41;;;20.99;100.00
59729;BME280;45588;51.598;5.618;2022-08-03T06:05:40;101378.81;;;21.03;100.00
59729;BME280;45588;51.598;5.618;2022-08-03T06:08:06;101381.44;;;21.05;100.00
59729;BME280;45588;51.598;5.618;2022-08-03T06:10:31;101383.78;;;21.31;100.00
59729;BME280;45588;51.598;5.618;2022-08-03T06:12:57;101388.09;;;21.36;100.00
59729;BME280;45588;51.598;5.618;2022-08-03T06:15:22;101385.38;;;21.46;100.00
59729;BME280;45588;51.598;5.618;2022-08-03T06:17:49;101388.78;;;21.55;100.00
59729;BME280;45588;51.598;5.618;2022-08-03T06:20:16;101385.91;;;21.69;100.00
59729;BME280;45588;51.598;5.618;2022-08-03T06:22:42;101393.81;;;21.75;100.00
59729;BME280;45588;51.598;5.618;2022-08-03T06:25:07;101382.91;;;21.94;100.00
59729;BME280;45588;51.598;5.618;2022-08-03T06:27:33;101392.41;;;22.07;100.00
59729;BME280;45588;51.598;5.618;2022-08-03T06:29:58;101381.00;;;22.02;100.00
59729;BME280;45588;51.598;5.618;2022-08-03T06:32:24;101383.72;;;21.99;100.00
59729;BME280;45588;51.598;5.618;2022-08-03T06:34:49;101377.13;;;22.24;100.00
59729;BME280;45588;51.598;5.618;2022-08-03T06:37:15;101378.06;;;22.22;100.00
59729;BME280;45588;51.598;5.618;2022-08-03T06:39:40;101384.03;;;22.36;100.00
59729;BME280;45588;51.598;5.618;2022-08-03T06:42:06;101389.19;;;22.45;100.00
59729;BME280;45588;51.598;5.618;2022-08-03T06:44:31;101388.28;;;22.46;100.00
59729;BME280;45588;51.598;5.618;2022-08-03T06:46:56;101390.81;;;22.53;100.00
59729;BME280;45588;51.598;5.618;2022-08-03T06:49:22;101389.41;;;22.81;100.00
59729;BME280;45588;51.598;5.618;2022-08-03T06:51:48;101398.22;;;22.83;100.00
59729;BME280;45588;51.598;5.618;2022-08-03T06:54:15;101405.13;;;22.92;100.00
59729;BME280;45588;51.598;5.618;2022-08-03T06:56:41;101396.97;;;23.03;100.00
59729;BME280;45588;51.598;5.618;2022-08-03T06:59:07;101396.81;;;23.10;100.00
59729;BME280;45588;51.598;5.618;2022-08-03T07:01:32;101393.03;;;23.24;100.00
59729;BME280;45588;51.598;5.618;2022-08-03T07:03:58;101402.66;;;23.28;100.00
59729;BME280;45588;51.598;5.618;2022-08-03T07:06:24;101400.59;;;23.44;100.00
59729;BME280;45588;51.598;5.618;2022-08-03T07:08:49;101392.53;;;23.47;99.18
59729;BME280;45588;51.598;5.618;2022-08-03T07:11:15;101401.13;;;23.58;98.41
59729;BME280;45588;51.598;5.618;2022-08-03T07:13:40;101400.19;;;23.62;96.79
59729;BME280;45588;51.598;5.618;2022-08-03T07:16:06;101407.06;;;23.72;94.75
59729;BME280;45588;51.598;5.618;2022-08-03T07:18:31;101410.31;;;23.85;96.23
59729;BME280;45588;51.598;5.618;2022-08-03T07:20:57;101407.66;;;23.85;93.02
59729;BME280;45588;51.598;5.618;2022-08-03T07:23:22;101412.38;;;23.74;93.32
59729;BME280;45588;51.598;5.618;2022-08-03T07:25:47;101409.41;;;23.86;92.17
59729;BME280;45588;51.598;5.618;2022-08-03T07:28:12;101414.50;;;23.97;94.02
59729;BME280;45588;51.598;5.618;2022-08-03T07:30:38;101417.31;;;23.89;93.14
59729;BME280;45588;51.598;5.618;2022-08-03T07:33:03;101416.69;;;23.78;92.70
59729;BME280;45588;51.598;5.618;2022-08-03T07:35:28;101420.13;;;23.83;93.67
59729;BME280;45588;51.598;5.618;2022-08-03T07:37:54;101410.88;;;24.00;93.33
59729;BME280;45588;51.598;5.618;2022-08-03T07:40:19;101411.09;;;23.89;91.05
59729;BME280;45588;51.598;5.618;2022-08-03T07:42:44;101411.53;;;24.09;91.28
59729;BME280;45588;51.598;5.618;2022-08-03T07:45:10;101410.13;;;24.30;90.53
59729;BME280;45588;51.598;5.618;2022-08-03T07:47:35;101413.28;;;24.46;91.12
59729;BME280;45588;51.598;5.618;2022-08-03T07:50:00;101412.00;;;24.27;88.67
59729;BME280;45588;51.598;5.618;2022-08-03T07:52:26;101422.28;;;24.40;88.06
59729;BME280;45588;51.598;5.618;2022-08-03T07:55:09;101414.56;;;24.66;89.92
59729;BME280;45588;51.598;5.618;2022-08-03T07:57:35;101411.78;;;24.70;87.39
59729;BME280;45588;51.598;5.618;2022-08-03T08:00:02;101414.13;;;24.82;88.35
59729;BME280;45588;51.598;5.618;2022-08-03T08:02:27;101409.81;;;24.77;85.90
59729;BME280;45588;51.598;5.618;2022-08-03T08:04:53;101403.13;;;24.95;85.54
59729;BME280;45588;51.598;5.618;2022-08-03T08:07:19;101412.69;;;25.02;86.74
59729;BME280;45588;51.598;5.618;2022-08-03T08:09:44;101406.94;;;25.17;85.89
59729;BME280;45588;51.598;5.618;2022-08-03T08:12:09;101401.69;;;25.14;83.18
59729;BME280;45588;51.598;5.618;2022-08-03T08:14:37;101405.59;;;25.34;84.62
59729;BME280;45588;51.598;5.618;2022-08-03T08:17:02;101404.31;;;25.47;84.03
59729;BME280;45588;51.598;5.618;2022-08-03T08:19:27;101402.34;;;25.54;82.42
59729;BME280;45588;51.598;5.618;2022-08-03T08:21:52;101407.81;;;25.77;82.81
59729;BME280;45588;51.598;5.618;2022-08-03T08:24:18;101402.31;;;25.55;80.10
59729;BME280;45588;51.598;5.618;2022-08-03T08:26:43;101411.16;;;25.85;83.35
59729;BME280;45588;51.598;5.618;2022-08-03T08:29:08;101409.91;;;25.97;81.74
59729;BME280;45588;51.598;5.618;2022-08-03T08:31:34;101402.88;;;25.95;78.63
59729;BME280;45588;51.598;5.618;2022-08-03T08:33:59;101404.38;;;26.03;78.82
59729;BME280;45588;51.598;5.618;2022-08-03T08:36:32;101413.84;;;26.14;78.68
59729;BME280;45588;51.598;5.618;2022-08-03T08:38:58;101402.25;;;26.13;78.05
59729;BME280;45588;51.598;5.618;2022-08-03T08:41:23;101402.50;;;26.33;77.35
59729;BME280;45588;51.598;5.618;2022-08-03T08:43:49;101401.06;;;26.23;76.97
59729;BME280;45588;51.598;5.618;2022-08-03T08:46:14;101398.06;;;26.32;77.26
59729;BME280;45588;51.598;5.618;2022-08-03T08:48:42;101401.56;;;26.34;74.58
59729;BME280;45588;51.598;5.618;2022-08-03T08:51:10;101399.34;;;26.47;77.53
59729;BME280;45588;51.598;5.618;2022-08-03T08:53:36;101398.00;;;26.61;77.82
59729;BME280;45588;51.598;5.618;2022-08-03T08:56:06;101391.25;;;26.75;75.93
59729;BME280;45588;51.598;5.618;2022-08-03T08:58:43;101401.19;;;26.72;74.75
59729;BME280;45588;51.598;5.618;2022-08-03T09:01:11;101403.03;;;26.70;73.27
59729;BME280;45588;51.598;5.618;2022-08-03T09:03:36;101400.47;;;26.67;73.56
59729;BME280;45588;51.598;5.618;2022-08-03T09:06:03;101400.22;;;26.98;74.11
59729;BME280;45588;51.598;5.618;2022-08-03T09:08:30;101397.13;;;27.10;72.94
59729;BME280;45588;51.598;5.618;2022-08-03T09:10:55;101398.84;;;27.11;71.57
59729;BME280;45588;51.598;5.618;2022-08-03T09:13:21;101397.44;;;27.26;73.09
59729;BME280;45588;51.598;5.618;2022-08-03T09:15:46;101399.13;;;27.29;71.88
59729;BME280;45588;51.598;5.618;2022-08-03T09:18:11;101407.66;;;27.38;71.40
59729;BME280;45588;51.598;5.618;2022-08-03T09:20:39;101399.44;;;27.45;73.46
59729;BME280;45588;51.598;5.618;2022-08-03T09:23:08;101399.72;;;27.37;70.59
59729;BME280;45588;51.598;5.618;2022-08-03T09:25:37;101400.50;;;27.62;68.97
59729;BME280;45588;51.598;5.618;2022-08-03T09:28:08;101399.75;;;27.59;69.40
59729;BME280;45588;51.598;5.618;2022-08-03T09:30:34;101399.69;;;27.60;68.31
59729;BME280;45588;51.598;5.618;2022-08-03T09:33:06;101396.00;;;27.87;71.23
59729;BME280;45588;51.598;5.618;2022-08-03T09:35:32;101400.94;;;27.74;69.24
59729;BME280;45588;51.598;5.618;2022-08-03T09:38:13;101400.25;;;27.92;70.45
59729;BME280;45588;51.598;5.618;2022-08-03T09:40:39;101396.38;;;27.99;69.66
59729;BME280;45588;51.598;5.618;2022-08-03T09:43:05;101398.53;;;28.12;67.16
59729;BME280;45588;51.598;5.618;2022-08-03T09:45:35;101392.09;;;27.95;65.04
59729;BME280;45588;51.598;5.618;2022-08-03T09:48:23;101402.00;;;28.36;68.64
59729;BME280;45588;51.598;5.618;2022-08-03T09:53:18;101391.53;;;28.72;67.92
59729;BME280;45588;51.598;5.618;2022-08-03T09:55:56;101407.13;;;28.62;63.77
59729;BME280;45588;51.598;5.618;2022-08-03T09:58:26;101399.72;;;28.48;63.89
59729;BME280;45588;51.598;5.618;2022-08-03T10:03:17;101399.13;;;28.83;63.67
59729;BME280;45588;51.598;5.618;2022-08-03T10:05:43;101393.59;;;28.86;62.35
59729;BME280;45588;51.598;5.618;2022-08-03T10:08:14;101396.94;;;28.91;62.87
59729;BME280;45588;51.598;5.618;2022-08-03T10:10:46;101392.78;;;29.04;61.38
59729;BME280;45588;51.598;5.618;2022-08-03T10:13:17;101388.25;;;28.86;61.69
59729;BME280;45588;51.598;5.618;2022-08-03T10:15:43;101385.78;;;29.00;61.51
59729;BME280;45588;51.598;5.618;2022-08-03T10:18:08;101386.56;;;29.23;61.57
59729;BME280;45588;51.598;5.618;2022-08-03T10:20:54;101393.91;;;29.19;61.99
59729;BME280;45588;51.598;5.618;2022-08-03T10:23:20;101385.50;;;29.27;61.77
59729;BME280;45588;51.598;5.618;2022-08-03T10:25:48;101379.78;;;29.53;63.68
59729;BME280;45588;51.598;5.618;2022-08-03T10:28:17;101391.09;;;29.41;58.70
59729;BME280;45588;51.598;5.618;2022-08-03T10:30:49;101383.19;;;29.57;59.46
59729;BME280;45588;51.598;5.618;2022-08-03T10:33:20;101381.59;;;29.72;59.81
59729;BME280;45588;51.598;5.618;2022-08-03T10:35:51;101377.31;;;29.68;58.59
59729;BME280;45588;51.598;5.618;2022-08-03T10:38:18;101379.44;;;29.97;58.14
59729;BME280;45588;51.598;5.618;2022-08-03T10:40:44;101375.84;;;29.61;57.54
59729;BME280;45588;51.598;5.618;2022-08-03T10:43:37;101380.34;;;29.60;60.47
59729;BME280;45588;51.598;5.618;2022-08-03T10:46:06;101374.72;;;29.66;57.75
59729;BME280;45588;51.598;5.618;2022-08-03T10:48:32;101365.19;;;29.78;58.40
59729;BME280;45588;51.598;5.618;2022-08-03T10:50:59;101378.41;;;29.64;58.31
59729;BME280;45588;51.598;5.618;2022-08-03T10:53:35;101372.78;;;29.87;56.77
59729;BME280;45588;51.598;5.618;2022-08-03T10:56:00;101363.25;;;29.82;59.44
59729;BME280;45588;51.598;5.618;2022-08-03T10:58:53;101365.81;;;29.83;57.39
59729;BME280;45588;51.598;5.618;2022-08-03T11:01:48;101357.09;;;29.97;57.07
59729;BME280;45588;51.598;5.618;2022-08-03T11:04:15;101350.94;;;29.95;56.92
59729;BME280;45588;51.598;5.618;2022-08-03T11:06:41;101344.63;;;30.13;60.30
59729;BME280;45588;51.598;5.618;2022-08-03T11:11:40;101348.81;;;30.36;56.03
59729;BME280;45588;51.598;5.618;2022-08-03T11:14:12;101351.50;;;30.19;54.61
59729;BME280;45588;51.598;5.618;2022-08-03T11:16:49;101340.22;;;30.47;57.80
59729;BME280;45588;51.598;5.618;2022-08-03T11:19:16;101338.16;;;30.52;56.46
59729;BME280;45588;51.598;5.618;2022-08-03T11:30:01;101338.56;;;30.62;53.50
59729;BME280;45588;51.598;5.618;2022-08-03T11:32:56;101344.69;;;30.64;55.03
59729;BME280;45588;51.598;5.618;2022-08-03T11:35:29;101337.03;;;30.56;56.06
59729;BME280;45588;51.598;5.618;2022-08-03T11:40:46;101347.13;;;30.69;55.39
59729;BME280;45588;51.598;5.618;2022-08-03T11:46:06;101345.91;;;30.41;53.58
59729;BME280;45588;51.598;5.618;2022-08-03T11:50:59;101338.97;;;30.37;52.31
59729;BME280;45588;51.598;5.618;2022-08-03T11:53:26;101340.25;;;30.11;52.54
59729;BME280;45588;51.598;5.618;2022-08-03T11:55:51;101344.78;;;30.10;53.08
59729;BME280;45588;51.598;5.618;2022-08-03T11:58:19;101346.53;;;30.29;54.40
59729;BME280;45588;51.598;5.618;2022-08-03T12:00:45;101340.13;;;30.49;55.84
59729;BME280;45588;51.598;5.618;2022-08-03T12:03:15;101340.31;;;30.79;52.76
59729;BME280;45588;51.598;5.618;2022-08-03T12:05:49;101339.69;;;30.91;53.02
59729;BME280;45588;51.598;5.618;2022-08-03T12:08:30;101345.97;;;31.08;53.60
59729;BME280;45588;51.598;5.618;2022-08-03T12:10:57;101337.41;;;30.83;52.08
59729;BME280;45588;51.598;5.618;2022-08-03T12:13:23;101343.78;;;30.81;51.77
59729;BME280;45588;51.598;5.618;2022-08-03T12:15:56;101348.47;;;30.77;52.08
59729;BME280;45588;51.598;5.618;2022-08-03T12:18:23;101346.34;;;30.84;54.20
59729;BME280;45588;51.598;5.618;2022-08-03T12:20:50;101342.91;;;30.82;52.43
59729;BME280;45588;51.598;5.618;2022-08-03T12:23:16;101350.38;;;30.93;52.72
59729;BME280;45588;51.598;5.618;2022-08-03T12:25:43;101343.34;;;30.73;50.24
59729;BME280;45588;51.598;5.618;2022-08-03T12:28:15;101343.09;;;30.95;52.57
59729;BME280;45588;51.598;5.618;2022-08-03T12:30:42;101339.00;;;30.88;51.41
59729;BME280;45588;51.598;5.618;2022-08-03T12:33:22;101352.53;;;31.02;52.39
59729;BME280;45588;51.598;5.618;2022-08-03T12:35:50;101343.84;;;30.97;52.00
59729;BME280;45588;51.598;5.618;2022-08-03T12:38:26;101335.44;;;30.87;51.21
59729;BME280;45588;51.598;5.618;2022-08-03T12:40:59;101344.56;;;30.85;50.55
59729;BME280;45588;51.598;5.618;2022-08-03T12:43:25;101339.66;;;30.58;49.85
59729;BME280;45588;51.598;5.618;2022-08-03T12:45:50;101340.06;;;30.50;49.46
59729;BME280;45588;51.598;5.618;2022-08-03T12:48:15;101341.06;;;30.65;52.55
59729;BME280;45588;51.598;5.618;2022-08-03T12:50:41;101339.50;;;30.44;51.19
59729;BME280;45588;51.598;5.618;2022-08-03T12:53:08;101337.22;;;30.36;51.17
59729;BME280;45588;51.598;5.618;2022-08-03T12:55:34;101344.09;;;30.41;51.28
59729;BME280;45588;51.598;5.618;2022-08-03T12:58:06;101335.06;;;30.60;52.49
59729;BME280;45588;51.598;5.618;2022-08-03T13:00:35;101338.22;;;30.68;52.49
59729;BME280;45588;51.598;5.618;2022-08-03T13:03:07;101341.69;;;30.88;51.68
59729;BME280;45588;51.598;5.618;2022-08-03T13:05:45;101327.63;;;30.65;52.35
59729;BME280;45588;51.598;5.618;2022-08-03T13:08:18;101329.72;;;30.76;53.60
59729;BME280;45588;51.598;5.618;2022-08-03T13:10:44;101328.75;;;30.94;52.60
59729;BME280;45588;51.598;5.618;2022-08-03T13:13:10;101323.50;;;31.09;51.19
59729;BME280;45588;51.598;5.618;2022-08-03T13:15:35;101327.16;;;31.08;51.27
59729;BME280;45588;51.598;5.618;2022-08-03T13:18:00;101324.38;;;31.25;51.60
59729;BME280;45588;51.598;5.618;2022-08-03T13:20:25;101323.34;;;31.27;52.16
59729;BME280;45588;51.598;5.618;2022-08-03T13:22:51;101324.47;;;31.23;50.92
59729;BME280;45588;51.598;5.618;2022-08-03T13:25:16;101322.38;;;31.29;51.17
59729;BME280;45588;51.598;5.618;2022-08-03T13:27:41;101320.94;;;31.39;51.50